sensor_id;sensor_type;location;lat;lon;timestamp;temperature;humidity
17341;DHT22;8788;49.930;8.660;2022-10-16T04:03:40;17.20;99.90
17341;DHT22;8788;49.930;8.660;2022-10-16T04:06:07;17.20;99.90
17341;DHT22;8788;49.930;8.660;2022-10-16T04:08:35;17.20;99.90
17341;DHT22;8788;49.930;8.660;2022-10-16T04:11:03;17.20;99.90
17341;DHT22;8788;49.930;8.660;2022-10-16T04:13:30;17.30;99.90
17341;DHT22;8788;49.930;8.660;2022-10-16T04:15:57;17.30;99.90
17341;DHT22;8788;49.930;8.660;2022-10-16T04:18:24;17.30;99.90
17341;DHT22;8788;49.930;8.660;2022-10-16T04:20:54;17.30;99.90
17341;DHT22;8788;49.930;8.660;2022-10-16T04:23:21;17.30;99.90
17341;DHT22;8788;49.930;8.660;2022-10-16T04:25:49;17.30;99.90
17341;DHT22;8788;49.930;8.660;2022-10-16T04:28:16;17.30;99.90
17341;DHT22;8788;49.930;8.660;2022-10-16T04:30:43;17.30;99.90
17341;DHT22;8788;49.930;8.660;2022-10-16T04:33:10;17.30;99.90
17341;DHT22;8788;49.930;8.660;2022-10-16T04:35:38;17.30;99.90
17341;DHT22;8788;49.930;8.660;2022-10-16T04:38:07;17.30;99.90
17341;DHT22;8788;49.930;8.660;2022-10-16T04:40:34;17.30;99.90
17341;DHT22;8788;49.930;8.660;2022-10-16T04:43:02;17.30;99.90
17341;DHT22;8788;49.930;8.660;2022-10-16T04:45:29;17.30;99.90
17341;DHT22;8788;49.930;8.660;2022-10-16T04:47:57;17.40;99.90
17341;DHT22;8788;49.930;8.660;2022-10-16T04:50:24;17.40;99.90
17341;DHT22;8788;49.930;8.660;2022-10-16T04:53:04;17.40;99.90
17341;DHT22;8788;49.930;8.660;2022-10-16T04:55:33;17.40;99.90
17341;DHT22;8788;49.930;8.660;2022-10-16T04:58:00;17.40;99.90
17341;DHT22;8788;49.930;8.660;2022-10-16T05:00:27;17.40;99.90
17341;DHT22;8788;49.930;8.660;2022-10-16T05:02:54;17.40;99.90
17341;DHT22;8788;49.930;8.660;2022-10-16T05:05:21;17.40;99.90
17341;DHT22;8788;49.930;8.660;2022-10-16T05:07:48;17.40;99.90
17341;DHT22;8788;49.930;8.660;2022-10-16T05:10:16;17.40;99.90
17341;DHT22;8788;49.930;8.660;2022-10-16T05:12:45;17.40;99.90
17341;DHT22;8788;49.930;8.660;2022-10-16T05:15:12;17.40;99.90
17341;DHT22;8788;49.930;8.660;2022-10-16T05:17:39;17.40;99.90
17341;DHT22;8788;49.930;8.660;2022-10-16T05:20:07;17.30;99.90
17341;DHT22;8788;49.930;8.660;2022-10-16T05:22:34;17.30;99.90
17341;DHT22;8788;49.930;8.660;2022-10-16T05:25:01;17.40;99.90
17341;DHT22;8788;49.930;8.660;2022-10-16T05:27:28;17.40;99.90
17341;DHT22;8788;49.930;8.660;2022-10-16T05:29:57;17.40;99.90
17341;DHT22;8788;49.930;8.660;2022-10-16T05:32:24;17.40;99.90
17341;DHT22;8788;49.930;8.660;2022-10-16T05:34:51;17.30;99.90
17341;DHT22;8788;49.930;8.660;2022-10-16T05:37:18;17.40;99.90
17341;DHT22;8788;49.930;8.660;2022-10-16T05:39:45;17.40;99.90
17341;DHT22;8788;49.930;8.660;2022-10-16T05:42:12;17.40;99.90
17341;DHT22;8788;49.930;8.660;2022-10-16T05:44:40;17.40;99.90
17341;DHT22;8788;49.930;8.660;2022-10-16T05:47:08;17.40;99.90
17341;DHT22;8788;49.930;8.660;2022-10-16T05:49:36;17.40;99.90
17341;DHT22;8788;49.930;8.660;2022-10-16T05:52:04;17.40;99.90
17341;DHT22;8788;49.930;8.660;2022-10-16T05:54:31;17.30;99.90
17341;DHT22;8788;49.930;8.660;2022-10-16T05:56:58;17.30;99.90
17341;DHT22;8788;49.930;8.660;2022-10-16T05:59:25;17.30;99.90
17341;DHT22;8788;49.930;8.660;2022-10-16T06:01:52;17.30;99.90
17341;DHT22;8788;49.930;8.660;2022-10-16T06:04:21;17.30;99.90
17341;DHT22;8788;49.930;8.660;2022-10-16T06:06:48;17.40;99.90
17341;DHT22;8788;49.930;8.660;2022-10-16T06:09:15;17.30;99.90
17341;DHT22;8788;49.930;8.660;2022-10-16T06:11:42;17.40;99.90
17341;DHT22;8788;49.930;8.660;2022-10-16T06:14:09;17.40;99.90
17341;DHT22;8788;49.930;8.660;2022-10-16T06:16:37;17.30;99.90
17341;DHT22;8788;49.930;8.660;2022-10-16T06:19:04;17.40;99.90
17341;DHT22;8788;49.930;8.660;2022-10-16T06:21:35;17.40;99.90
17341;DHT22;8788;49.930;8.660;2022-10-16T06:24:02;17.40;99.90
17341;DHT22;8788;49.930;8.660;2022-10-16T06:26:31;17.40;99.90
17341;DHT22;8788;49.930;8.660;2022-10-16T06:28:59;17.40;99.90
17341;DHT22;8788;49.930;8.660;2022-10-16T06:31:27;17.40;99.90
17341;DHT22;8788;49.930;8.660;2022-10-16T06:33:57;17.40;99.90
17341;DHT22;8788;49.930;8.660;2022-10-16T06:36:24;17.40;99.90
17341;DHT22;8788;49.930;8.660;2022-10-16T06:38:53;17.40;99.90
17341;DHT22;8788;49.930;8.660;2022-10-16T06:41:21;17.40;99.90
17341;DHT22;8788;49.930;8.660;2022-10-16T06:43:49;17.50;99.90
17341;DHT22;8788;49.930;8.660;2022-10-16T06:46:18;17.50;99.90
17341;DHT22;8788;49.930;8.660;2022-10-16T06:48:46;17.50;99.90
17341;DHT22;8788;49.930;8.660;2022-10-16T06:51:14;17.50;99.90
17341;DHT22;8788;49.930;8.660;2022-10-16T06:53:43;17.50;99.90
17341;DHT22;8788;49.930;8.660;2022-10-16T06:56:14;17.50;99.90
17341;DHT22;8788;49.930;8.660;2022-10-16T06:58:42;17.50;99.90
17341;DHT22;8788;49.930;8.660;2022-10-16T07:01:10;17.50;99.90
17341;DHT22;8788;49.930;8.660;2022-10-16T07:03:38;17.60;99.90
17341;DHT22;8788;49.930;8.660;2022-10-16T07:06:07;17.60;99.90
17341;DHT22;8788;49.930;8.660;2022-10-16T07:08:36;17.60;99.90
17341;DHT22;8788;49.930;8.660;2022-10-16T07:11:05;17.60;99.90
17341;DHT22;8788;49.930;8.660;2022-10-16T07:13:34;17.70;99.90
17341;DHT22;8788;49.930;8.660;2022-10-16T07:16:05;17.70;99.90
17341;DHT22;8788;49.930;8.660;2022-10-16T07:18:32;17.70;99.90
17341;DHT22;8788;49.930;8.660;2022-10-16T07:21:04;17.70;99.90
17341;DHT22;8788;49.930;8.660;2022-10-16T07:23:31;17.70;99.90
17341;DHT22;8788;49.930;8.660;2022-10-16T07:25:58;17.70;99.90
17341;DHT22;8788;49.930;8.660;2022-10-16T07:28:26;17.70;99.90
17341;DHT22;8788;49.930;8.660;2022-10-16T07:30:54;17.70;99.90
17341;DHT22;8788;49.930;8.660;2022-10-16T07:33:22;17.70;99.90
17341;DHT22;8788;49.930;8.660;2022-10-16T07:35:50;17.70;99.90
17341;DHT22;8788;49.930;8.660;2022-10-16T07:38:17;17.70;99.90
17341;DHT22;8788;49.930;8.660;2022-10-16T07:40:44;17.70;99.90
17341;DHT22;8788;49.930;8.660;2022-10-16T07:43:12;17.70;99.90
17341;DHT22;8788;49.930;8.660;2022-10-16T07:45:46;17.70;99.90
17341;DHT22;8788;49.930;8.660;2022-10-16T07:48:16;17.70;99.90
17341;DHT22;8788;49.930;8.660;2022-10-16T07:50:44;17.60;99.90
17341;DHT22;8788;49.930;8.660;2022-10-16T07:53:12;17.70;99.90
17341;DHT22;8788;49.930;8.660;2022-10-16T07:55:39;17.70;99.90
17341;DHT22;8788;49.930;8.660;2022-10-16T07:58:06;17.60;99.90
17341;DHT22;8788;49.930;8.660;2022-10-16T08:00:35;17.70;99.90
17341;DHT22;8788;49.930;8.660;2022-10-16T08:03:02;17.80;99.90
17341;DHT22;8788;49.930;8.660;2022-10-16T08:05:32;17.90;99.90
17341;DHT22;8788;49.930;8.660;2022-10-16T08:08:00;17.90;99.90
17341;DHT22;8788;49.930;8.660;2022-10-16T08:10:28;17.90;99.90
17341;DHT22;8788;49.930;8.660;2022-10-16T08:12:57;18.00;99.90
17341;DHT22;8788;49.930;8.660;2022-10-16T08:15:24;18.00;99.90
17341;DHT22;8788;49.930;8.660;2022-10-16T08:17:56;18.00;99.90
17341;DHT22;8788;49.930;8.660;2022-10-16T08:20:23;18.00;99.90
17341;DHT22;8788;49.930;8.660;2022-10-16T08:22:52;18.00;99.90
17341;DHT22;8788;49.930;8.660;2022-10-16T08:25:19;18.00;99.90
17341;DHT22;8788;49.930;8.660;2022-10-16T08:27:47;18.00;99.90
17341;DHT22;8788;49.930;8.660;2022-10-16T08:30:15;18.00;99.90
17341;DHT22;8788;49.930;8.660;2022-10-16T08:32:42;18.00;99.90
17341;DHT22;8788;49.930;8.660;2022-10-16T08:35:09;18.00;99.90
17341;DHT22;8788;49.930;8.660;2022-10-16T08:37:37;17.90;99.90
17341;DHT22;8788;49.930;8.660;2022-10-16T08:40:12;17.90;99.90
17341;DHT22;8788;49.930;8.660;2022-10-16T08:42:55;17.90;99.90
17341;DHT22;8788;49.930;8.660;2022-10-16T08:45:42;17.90;99.90
17341;DHT22;8788;49.930;8.660;2022-10-16T08:48:20;17.80;99.90
17341;DHT22;8788;49.930;8.660;2022-10-16T08:50:50;17.80;99.90
17341;DHT22;8788;49.930;8.660;2022-10-16T08:53:22;17.70;99.90
17341;DHT22;8788;49.930;8.660;2022-10-16T08:55:53;17.70;99.90
17341;DHT22;8788;49.930;8.660;2022-10-16T08:58:22;17.70;99.90
17341;DHT22;8788;49.930;8.660;2022-10-16T09:00:54;17.70;99.90
17341;DHT22;8788;49.930;8.660;2022-10-16T09:03:39;17.70;99.90
17341;DHT22;8788;49.930;8.660;2022-10-16T09:06:19;17.70;99.90
17341;DHT22;8788;49.930;8.660;2022-10-16T09:09:02;17.80;99.90
17341;DHT22;8788;49.930;8.660;2022-10-16T09:11:41;17.80;99.90
17341;DHT22;8788;49.930;8.660;2022-10-16T09:14:21;17.80;99.90
17341;DHT22;8788;49.930;8.660;2022-10-16T09:16:57;17.80;99.90
17341;DHT22;8788;49.930;8.660;2022-10-16T09:19:31;17.80;99.90
17341;DHT22;8788;49.930;8.660;2022-10-16T09:22:08;17.90;99.90
17341;DHT22;8788;49.930;8.660;2022-10-16T09:24:37;17.90;99.90
17341;DHT22;8788;49.930;8.660;2022-10-16T09:27:08;17.80;99.90
17341;DHT22;8788;49.930;8.660;2022-10-16T09:29:36;17.90;99.90
17341;DHT22;8788;49.930;8.660;2022-10-16T09:32:11;18.00;99.90
17341;DHT22;8788;49.930;8.660;2022-10-16T09:34:43;18.00;99.90
17341;DHT22;8788;49.930;8.660;2022-10-16T09:37:14;18.10;99.90
17341;DHT22;8788;49.930;8.660;2022-10-16T09:39:48;18.10;99.90
17341;DHT22;8788;49.930;8.660;2022-10-16T09:42:18;18.20;99.90
17341;DHT22;8788;49.930;8.660;2022-10-16T09:44:48;18.40;99.90
17341;DHT22;8788;49.930;8.660;2022-10-16T09:47:19;18.60;99.90
17341;DHT22;8788;49.930;8.660;2022-10-16T09:49:52;18.70;99.90
17341;DHT22;8788;49.930;8.660;2022-10-16T09:52:21;18.80;99.90
17341;DHT22;8788;49.930;8.660;2022-10-16T09:54:50;19.00;99.90
17341;DHT22;8788;49.930;8.660;2022-10-16T09:57:19;19.10;99.90
17341;DHT22;8788;49.930;8.660;2022-10-16T09:59:48;19.30;99.90
17341;DHT22;8788;49.930;8.660;2022-10-16T10:02:17;19.60;99.90
17341;DHT22;8788;49.930;8.660;2022-10-16T10:04:49;19.80;99.90
17341;DHT22;8788;49.930;8.660;2022-10-16T10:07:19;20.00;99.90
17341;DHT22;8788;49.930;8.660;2022-10-16T10:09:48;20.00;99.90
17341;DHT22;8788;49.930;8.660;2022-10-16T10:12:20;19.90;99.90
17341;DHT22;8788;49.930;8.660;2022-10-16T10:14:49;20.00;99.90
17341;DHT22;8788;49.930;8.660;2022-10-16T10:17:18;20.10;99.90
17341;DHT22;8788;49.930;8.660;2022-10-16T10:19:51;20.10;99.90
17341;DHT22;8788;49.930;8.660;2022-10-16T10:22:25;20.20;99.90
17341;DHT22;8788;49.930;8.660;2022-10-16T10:25:00;20.30;99.90
17341;DHT22;8788;49.930;8.660;2022-10-16T10:27:35;20.50;99.90
17341;DHT22;8788;49.930;8.660;2022-10-16T10:30:11;20.70;99.90
17341;DHT22;8788;49.930;8.660;2022-10-16T10:32:51;20.80;99.90
17341;DHT22;8788;49.930;8.660;2022-10-16T10:35:24;21.00;99.90
17341;DHT22;8788;49.930;8.660;2022-10-16T10:38:07;21.10;99.90
17341;DHT22;8788;49.930;8.660;2022-10-16T10:40:45;21.10;99.90
17341;DHT22;8788;49.930;8.660;2022-10-16T10:43:29;20.90;99.90
17341;DHT22;8788;49.930;8.660;2022-10-16T10:46:02;20.70;99.90
17341;DHT22;8788;49.930;8.660;2022-10-16T10:48:53;20.80;99.90
17341;DHT22;8788;49.930;8.660;2022-10-16T10:51:27;20.80;99.90
17341;DHT22;8788;49.930;8.660;2022-10-16T10:54:07;20.80;99.90
17341;DHT22;8788;49.930;8.660;2022-10-16T10:56:46;20.90;99.90
17341;DHT22;8788;49.930;8.660;2022-10-16T10:59:39;20.80;99.90
17341;DHT22;8788;49.930;8.660;2022-10-16T11:02:15;20.90;99.90
17341;DHT22;8788;49.930;8.660;2022-10-16T11:05:07;20.80;99.90
17341;DHT22;8788;49.930;8.660;2022-10-16T11:07:45;20.90;99.90
17341;DHT22;8788;49.930;8.660;2022-10-16T11:10:18;21.10;99.90
17341;DHT22;8788;49.930;8.660;2022-10-16T11:12:50;21.20;99.90
17341;DHT22;8788;49.930;8.660;2022-10-16T11:15:25;21.30;99.90
17341;DHT22;8788;49.930;8.660;2022-10-16T11:17:59;21.20;99.90
17341;DHT22;8788;49.930;8.660;2022-10-16T11:20:31;21.20;99.90
17341;DHT22;8788;49.930;8.660;2022-10-16T11:23:05;21.50;99.90
17341;DHT22;8788;49.930;8.660;2022-10-16T11:25:35;21.50;99.90
17341;DHT22;8788;49.930;8.660;2022-10-16T11:28:07;21.50;99.90
17341;DHT22;8788;49.930;8.660;2022-10-16T11:30:43;21.40;99.90
17341;DHT22;8788;49.930;8.660;2022-10-16T11:33:27;21.40;99.90
17341;DHT22;8788;49.930;8.660;2022-10-16T11:36:03;21.40;99.90
17341;DHT22;8788;49.930;8.660;2022-10-16T11:38:34;21.70;99.90
17341;DHT22;8788;49.930;8.660;2022-10-16T11:41:10;21.60;99.90
17341;DHT22;8788;49.930;8.660;2022-10-16T11:43:43;21.40;99.90
17341;DHT22;8788;49.930;8.660;2022-10-16T11:46:17;21.20;99.90
17341;DHT22;8788;49.930;8.660;2022-10-16T11:48:48;21.40;99.90
17341;DHT22;8788;49.930;8.660;2022-10-16T11:51:20;21.90;99.90
17341;DHT22;8788;49.930;8.660;2022-10-16T11:53:53;22.30;99.90
17341;DHT22;8788;49.930;8.660;2022-10-16T11:56:23;22.30;99.90
17341;DHT22;8788;49.930;8.660;2022-10-16T11:58:56;22.40;99.90
17341;DHT22;8788;49.930;8.660;2022-10-16T12:01:31;22.50;99.90
17341;DHT22;8788;49.930;8.660;2022-10-16T12:04:12;22.60;99.90
17341;DHT22;8788;49.930;8.660;2022-10-16T12:06:43;22.40;99.90
17341;DHT22;8788;49.930;8.660;2022-10-16T12:09:15;22.10;99.90
17341;DHT22;8788;49.930;8.660;2022-10-16T12:11:46;22.00;99.90
17341;DHT22;8788;49.930;8.660;2022-10-16T12:14:20;22.00;99.90
17341;DHT22;8788;49.930;8.660;2022-10-16T12:16:54;22.00;99.90
17341;DHT22;8788;49.930;8.660;2022-10-16T12:19:22;22.00;99.90
17341;DHT22;8788;49.930;8.660;2022-10-16T12:21:51;22.00;99.90
17341;DHT22;8788;49.930;8.660;2022-10-16T12:24:30;21.90;99.90
17341;DHT22;8788;49.930;8.660;2022-10-16T12:26:59;22.00;99.90
17341;DHT22;8788;49.930;8.660;2022-10-16T12:29:35;22.20;99.90
17341;DHT22;8788;49.930;8.660;2022-10-16T12:32:06;22.20;99.90
17341;DHT22;8788;49.930;8.660;2022-10-16T12:34:47;22.40;99.90
17341;DHT22;8788;49.930;8.660;2022-10-16T12:37:26;22.60;99.90
17341;DHT22;8788;49.930;8.660;2022-10-16T12:40:24;22.80;99.90
17341;DHT22;8788;49.930;8.660;2022-10-16T12:42:51;22.90;99.90
17341;DHT22;8788;49.930;8.660;2022-10-16T12:45:27;23.00;99.90
17341;DHT22;8788;49.930;8.660;2022-10-16T12:47:57;23.30;99.90
17341;DHT22;8788;49.930;8.660;2022-10-16T12:50:31;23.40;99.90
17341;DHT22;8788;49.930;8.660;2022-10-16T12:53:00;23.30;99.90
17341;DHT22;8788;49.930;8.660;2022-10-16T12:55:34;23.10;99.90
17341;DHT22;8788;49.930;8.660;2022-10-16T12:58:33;23.00;99.90
17341;DHT22;8788;49.930;8.660;2022-10-16T13:01:09;22.70;99.90
17341;DHT22;8788;49.930;8.660;2022-10-16T13:03:58;22.40;99.90
17341;DHT22;8788;49.930;8.660;2022-10-16T13:06:35;22.20;99.90
17341;DHT22;8788;49.930;8.660;2022-10-16T13:09:20;22.10;99.90
17341;DHT22;8788;49.930;8.660;2022-10-16T13:12:07;22.00;99.90
17341;DHT22;8788;49.930;8.660;2022-10-16T13:14:52;21.90;99.90
17341;DHT22;8788;49.930;8.660;2022-10-16T13:17:25;21.80;99.90
17341;DHT22;8788;49.930;8.660;2022-10-16T13:20:02;21.80;99.90
17341;DHT22;8788;49.930;8.660;2022-10-16T13:22:35;21.70;99.90
17341;DHT22;8788;49.930;8.660;2022-10-16T13:25:17;21.60;99.90
17341;DHT22;8788;49.930;8.660;2022-10-16T13:27:53;21.60;99.90
17341;DHT22;8788;49.930;8.660;2022-10-16T13:30:23;21.50;99.90
17341;DHT22;8788;49.930;8.660;2022-10-16T13:32:59;21.50;99.90
17341;DHT22;8788;49.930;8.660;2022-10-16T13:35:31;21.50;99.90
17341;DHT22;8788;49.930;8.660;2022-10-16T13:38:10;21.50;99.90
17341;DHT22;8788;49.930;8.660;2022-10-16T13:40:48;21.40;99.90
17341;DHT22;8788;49.930;8.660;2022-10-16T13:43:16;21.50;99.90
17341;DHT22;8788;49.930;8.660;2022-10-16T13:45:56;21.50;99.90
17341;DHT22;8788;49.930;8.660;2022-10-16T13:48:24;21.40;99.90
17341;DHT22;8788;49.930;8.660;2022-10-16T13:51:05;21.40;99.90
17341;DHT22;8788;49.930;8.660;2022-10-16T13:53:34;21.40;99.90
17341;DHT22;8788;49.930;8.660;2022-10-16T13:56:06;21.40;99.90
17341;DHT22;8788;49.930;8.660;2022-10-16T13:58:33;21.40;99.90
17341;DHT22;8788;49.930;8.660;2022-10-16T14:01:02;21.40;99.90
17341;DHT22;8788;49.930;8.660;2022-10-16T14:03:31;21.30;99.90
17341;DHT22;8788;49.930;8.660;2022-10-16T14:06:02;21.30;99.90
17341;DHT22;8788;49.930;8.660;2022-10-16T14:08:31;21.20;99.90
17341;DHT22;8788;49.930;8.660;2022-10-16T14:10:59;21.30;99.90
17341;DHT22;8788;49.930;8.660;2022-10-16T14:13:31;21.30;99.90
17341;DHT22;8788;49.930;8.660;2022-10-16T14:16:05;21.40;99.90
17341;DHT22;8788;49.930;8.660;2022-10-16T14:18:33;21.40;99.90
17341;DHT22;8788;49.930;8.660;2022-10-16T14:21:11;21.50;99.90
17341;DHT22;8788;49.930;8.660;2022-10-16T14:23:40;21.50;99.90
17341;DHT22;8788;49.930;8.660;2022-10-16T14:26:19;21.50;99.90
17341;DHT22;8788;49.930;8.660;2022-10-16T14:28:48;21.50;99.90
17341;DHT22;8788;49.930;8.660;2022-10-16T14:31:27;21.50;99.90
17341;DHT22;8788;49.930;8.660;2022-10-16T14:33:55;21.50;99.90
17341;DHT22;8788;49.930;8.660;2022-10-16T14:36:24;21.40;99.90
17341;DHT22;8788;49.930;8.660;2022-10-16T14:38:59;21.40;99.90
17341;DHT22;8788;49.930;8.660;2022-10-16T14:41:28;21.40;99.90
17341;DHT22;8788;49.930;8.660;2022-10-16T14:43:57;21.40;99.90
17341;DHT22;8788;49.930;8.660;2022-10-16T14:46:33;21.30;99.90
17341;DHT22;8788;49.930;8.660;2022-10-16T14:49:04;21.30;99.90
17341;DHT22;8788;49.930;8.660;2022-10-16T14:51:42;21.30;99.90
17341;DHT22;8788;49.930;8.660;2022-10-16T14:54:11;21.30;99.90
17341;DHT22;8788;49.930;8.660;2022-10-16T14:56:46;21.30;99.90
17341;DHT22;8788;49.930;8.660;2022-10-16T14:59:16;21.30;99.90
17341;DHT22;8788;49.930;8.660;2022-10-16T15:01:44;21.30;99.90
17341;DHT22;8788;49.930;8.660;2022-10-16T15:04:12;21.20;99.90
17341;DHT22;8788;49.930;8.660;2022-10-16T15:06:41;21.20;99.90
17341;DHT22;8788;49.930;8.660;2022-10-16T15:09:08;21.30;99.90
17341;DHT22;8788;49.930;8.660;2022-10-16T15:11:35;21.50;99.90
17341;DHT22;8788;49.930;8.660;2022-10-16T15:14:03;23.90;99.90
17341;DHT22;8788;49.930;8.660;2022-10-16T15:16:30;24.80;99.90
17341;DHT22;8788;49.930;8.660;2022-10-16T15:18:58;24.40;99.90
17341;DHT22;8788;49.930;8.660;2022-10-16T15:21:27;23.90;99.90
17341;DHT22;8788;49.930;8.660;2022-10-16T15:23:56;23.40;99.90
17341;DHT22;8788;49.930;8.660;2022-10-16T15:26:24;23.00;99.90
17341;DHT22;8788;49.930;8.660;2022-10-16T15:28:51;22.70;99.90
17341;DHT22;8788;49.930;8.660;2022-10-16T15:31:19;22.40;99.90
17341;DHT22;8788;49.930;8.660;2022-10-16T15:33:50;22.20;99.90
17341;DHT22;8788;49.930;8.660;2022-10-16T15:36:26;22.20;99.90
17341;DHT22;8788;49.930;8.660;2022-10-16T15:38:55;22.10;99.90
17341;DHT22;8788;49.930;8.660;2022-10-16T15:41:22;22.10;99.90
17341;DHT22;8788;49.930;8.660;2022-10-16T15:43:49;22.00;99.90
17341;DHT22;8788;49.930;8.660;2022-10-16T15:46:18;21.80;99.90
17341;DHT22;8788;49.930;8.660;2022-10-16T15:48:46;21.80;99.90
17341;DHT22;8788;49.930;8.660;2022-10-16T15:51:14;21.70;99.90
17341;DHT22;8788;49.930;8.660;2022-10-16T15:53:41;21.60;99.90
17341;DHT22;8788;49.930;8.660;2022-10-16T15:56:10;21.50;99.90
17341;DHT22;8788;49.930;8.660;2022-10-16T15:58:38;21.40;99.90
17341;DHT22;8788;49.930;8.660;2022-10-16T16:01:06;21.30;99.90
17341;DHT22;8788;49.930;8.660;2022-10-16T16:03:35;21.20;99.90
17341;DHT22;8788;49.930;8.660;2022-10-16T16:06:07;21.10;99.90
17341;DHT22;8788;49.930;8.660;2022-10-16T16:08:35;21.10;99.90
17341;DHT22;8788;49.930;8.660;2022-10-16T16:11:05;21.00;99.90
17341;DHT22;8788;49.930;8.660;2022-10-16T16:13:33;20.90;99.90
17341;DHT22;8788;49.930;8.660;2022-10-16T16:16:05;20.80;99.90
17341;DHT22;8788;49.930;8.660;2022-10-16T16:18:33;20.80;99.90
17341;DHT22;8788;49.930;8.660;2022-10-16T16:21:00;20.70;99.90
17341;DHT22;8788;49.930;8.660;2022-10-16T16:23:27;20.70;99.90
17341;DHT22;8788;49.930;8.660;2022-10-16T16:26:05;20.70;99.90
17341;DHT22;8788;49.930;8.660;2022-10-16T16:28:34;20.60;99.90
17341;DHT22;8788;49.930;8.660;2022-10-16T16:31:02;20.60;99.90
17341;DHT22;8788;49.930;8.660;2022-10-16T16:33:29;20.50;99.90
17341;DHT22;8788;49.930;8.660;2022-10-16T16:35:57;20.50;99.90
17341;DHT22;8788;49.930;8.660;2022-10-16T16:38:25;20.40;99.90
17341;DHT22;8788;49.930;8.660;2022-10-16T16:40:52;20.40;99.90
17341;DHT22;8788;49.930;8.660;2022-10-16T16:43:22;20.30;99.90
17341;DHT22;8788;49.930;8.660;2022-10-16T16:45:50;20.20;99.90
17341;DHT22;8788;49.930;8.660;2022-10-16T16:48:17;20.20;99.90
17341;DHT22;8788;49.930;8.660;2022-10-16T16:50:45;20.20;99.90
17341;DHT22;8788;49.930;8.660;2022-10-16T16:53:12;20.10;99.90
17341;DHT22;8788;49.930;8.660;2022-10-16T16:55:39;20.10;99.90
17341;DHT22;8788;49.930;8.660;2022-10-16T16:58:06;20.00;99.90
17341;DHT22;8788;49.930;8.660;2022-10-16T17:00:33;20.00;99.90
17341;DHT22;8788;49.930;8.660;2022-10-16T17:03:01;19.90;99.90
17341;DHT22;8788;49.930;8.660;2022-10-16T17:05:28;19.90;99.90
17341;DHT22;8788;49.930;8.660;2022-10-16T17:07:56;19.90;99.90
17341;DHT22;8788;49.930;8.660;2022-10-16T17:10:23;19.80;99.90
17341;DHT22;8788;49.930;8.660;2022-10-16T17:12:50;19.80;99.90
17341;DHT22;8788;49.930;8.660;2022-10-16T17:15:17;19.80;99.90
17341;DHT22;8788;49.930;8.660;2022-10-16T17:17:44;19.80;99.90
17341;DHT22;8788;49.930;8.660;2022-10-16T17:20:12;19.70;99.90
17341;DHT22;8788;49.930;8.660;2022-10-16T17:22:39;19.70;99.90
17341;DHT22;8788;49.930;8.660;2022-10-16T17:25:07;19.70;99.90
17341;DHT22;8788;49.930;8.660;2022-10-16T17:27:34;19.70;99.90
17341;DHT22;8788;49.930;8.660;2022-10-16T17:30:03;19.70;99.90
17341;DHT22;8788;49.930;8.660;2022-10-16T17:32:30;19.60;99.90
17341;DHT22;8788;49.930;8.660;2022-10-16T17:34:57;19.60;99.90
17341;DHT22;8788;49.930;8.660;2022-10-16T17:37:26;19.60;99.90
17341;DHT22;8788;49.930;8.660;2022-10-16T17:39:53;19.60;99.90
17341;DHT22;8788;49.930;8.660;2022-10-16T17:42:20;19.50;99.90
17341;DHT22;8788;49.930;8.660;2022-10-16T17:44:47;19.50;99.90
17341;DHT22;8788;49.930;8.660;2022-10-16T17:47:14;19.40;99.90
17341;DHT22;8788;49.930;8.660;2022-10-16T17:49:41;19.40;99.90
17341;DHT22;8788;49.930;8.660;2022-10-16T17:52:08;19.30;99.90
17341;DHT22;8788;49.930;8.660;2022-10-16T17:54:37;19.20;99.90
17341;DHT22;8788;49.930;8.660;2022-10-16T17:57:05;19.20;99.90
17341;DHT22;8788;49.930;8.660;2022-10-16T17:59:32;19.10;99.90
17341;DHT22;8788;49.930;8.660;2022-10-16T18:01:59;19.10;99.90
17341;DHT22;8788;49.930;8.660;2022-10-16T18:04:26;19.10;99.90
17341;DHT22;8788;49.930;8.660;2022-10-16T18:06:54;19.10;99.90
17341;DHT22;8788;49.930;8.660;2022-10-16T18:09:21;19.10;99.90
17341;DHT22;8788;49.930;8.660;2022-10-16T18:11:50;19.00;99.90
17341;DHT22;8788;49.930;8.660;2022-10-16T18:14:25;19.00;99.90
17341;DHT22;8788;49.930;8.660;2022-10-16T18:16:53;19.00;99.90
17341;DHT22;8788;49.930;8.660;2022-10-16T18:19:20;18.90;99.90
17341;DHT22;8788;49.930;8.660;2022-10-16T18:21:48;18.90;99.90
17341;DHT22;8788;49.930;8.660;2022-10-16T18:24:15;18.80;99.90
17341;DHT22;8788;49.930;8.660;2022-10-16T18:26:43;18.80;99.90
17341;DHT22;8788;49.930;8.660;2022-10-16T18:29:12;18.80;99.90
17341;DHT22;8788;49.930;8.660;2022-10-16T18:31:39;18.80;99.90
17341;DHT22;8788;49.930;8.660;2022-10-16T18:34:07;18.80;99.90
17341;DHT22;8788;49.930;8.660;2022-10-16T18:36:34;18.80;99.90
17341;DHT22;8788;49.930;8.660;2022-10-16T18:39:04;18.70;99.90
17341;DHT22;8788;49.930;8.660;2022-10-16T18:41:34;18.70;99.90
17341;DHT22;8788;49.930;8.660;2022-10-16T18:44:01;18.70;99.90
17341;DHT22;8788;49.930;8.660;2022-10-16T18:46:30;18.60;99.90
17341;DHT22;8788;49.930;8.660;2022-10-16T18:48:57;18.60;99.90
17341;DHT22;8788;49.930;8.660;2022-10-16T18:51:27;18.50;99.90
17341;DHT22;8788;49.930;8.660;2022-10-16T18:53:57;18.50;99.90
17341;DHT22;8788;49.930;8.660;2022-10-16T18:56:26;18.50;99.90
17341;DHT22;8788;49.930;8.660;2022-10-16T18:58:55;18.50;99.90
17341;DHT22;8788;49.930;8.660;2022-10-16T19:01:25;18.40;99.90
17341;DHT22;8788;49.930;8.660;2022-10-16T19:03:56;18.40;99.90
17341;DHT22;8788;49.930;8.660;2022-10-16T19:06:23;18.40;99.90
17341;DHT22;8788;49.930;8.660;2022-10-16T19:08:52;18.40;99.90
17341;DHT22;8788;49.930;8.660;2022-10-16T19:11:21;18.40;99.90
17341;DHT22;8788;49.930;8.660;2022-10-16T19:13:49;18.40;99.90
17341;DHT22;8788;49.930;8.660;2022-10-16T19:16:18;18.30;99.90
17341;DHT22;8788;49.930;8.660;2022-10-16T19:18:45;18.30;99.90
17341;DHT22;8788;49.930;8.660;2022-10-16T19:21:14;18.30;99.90
17341;DHT22;8788;49.930;8.660;2022-10-16T19:23:42;18.20;99.90
17341;DHT22;8788;49.930;8.660;2022-10-16T19:26:11;18.20;99.90
17341;DHT22;8788;49.930;8.660;2022-10-16T19:28:38;18.20;99.90
17341;DHT22;8788;49.930;8.660;2022-10-16T19:31:07;18.20;99.90
17341;DHT22;8788;49.930;8.660;2022-10-16T19:33:37;18.20;99.90
17341;DHT22;8788;49.930;8.660;2022-10-16T19:36:08;18.20;99.90
17341;DHT22;8788;49.930;8.660;2022-10-16T19:38:37;18.10;99.90
17341;DHT22;8788;49.930;8.660;2022-10-16T19:41:06;18.10;99.90
17341;DHT22;8788;49.930;8.660;2022-10-16T19:43:33;18.10;99.90
17341;DHT22;8788;49.930;8.660;2022-10-16T19:46:04;18.00;99.90
17341;DHT22;8788;49.930;8.660;2022-10-16T19:48:32;18.00;99.90
17341;DHT22;8788;49.930;8.660;2022-10-16T19:51:00;18.00;99.90
17341;DHT22;8788;49.930;8.660;2022-10-16T19:53:28;17.90;99.90
17341;DHT22;8788;49.930;8.660;2022-10-16T19:55:57;17.90;99.90
17341;DHT22;8788;49.930;8.660;2022-10-16T19:58:25;17.90;99.90
17341;DHT22;8788;49.930;8.660;2022-10-16T20:00:52;17.80;99.90
17341;DHT22;8788;49.930;8.660;2022-10-16T20:03:20;17.80;99.90
17341;DHT22;8788;49.930;8.660;2022-10-16T20:05:50;17.80;99.90
17341;DHT22;8788;49.930;8.660;2022-10-16T20:08:17;17.80;99.90